createdAt,value
2019-03-13T00:00:10.687Z,0.50
2019-03-13T00:02:38.748Z,0.30
2019-03-13T00:05:07.749Z,0.37
2019-03-13T00:07:35.844Z,0.17
2019-03-13T00:10:24.135Z,0.20
2019-03-13T00:12:52.226Z,0.20
2019-03-13T00:15:20.292Z,0.83
2019-03-13T00:17:48.389Z,0.43
2019-03-13T00:20:16.451Z,0.10
2019-03-13T00:22:44.506Z,0.10
2019-03-13T00:25:31.882Z,0.27
2019-03-13T00:27:59.955Z,0.17
2019-03-13T00:30:27.999Z,0.13
2019-03-13T00:32:56.050Z,1.20
2019-03-13T00:35:24.118Z,0.20
2019-03-13T00:37:52.171Z,0.33
2019-03-13T00:40:20.223Z,0.10
2019-03-13T00:42:48.268Z,0.43
2019-03-13T00:45:16.312Z,0.33
2019-03-13T00:47:44.386Z,0.10
2019-03-13T00:50:26.060Z,0.30
2019-03-13T00:52:54.210Z,0.20
2019-03-13T00:55:22.724Z,0.43
2019-03-13T00:57:50.795Z,0.73
2019-03-13T01:00:38.266Z,0.20
2019-03-13T01:03:07.997Z,0.20
2019-03-13T01:05:43.394Z,1.10
2019-03-13T01:08:11.485Z,0.20
2019-03-13T01:10:39.535Z,0.30
2019-03-13T01:13:07.579Z,0.97
2019-03-13T01:15:35.666Z,0.50
2019-03-13T01:18:03.704Z,0.60
2019-03-13T01:20:31.745Z,0.87
2019-03-13T01:22:59.807Z,1.03
2019-03-13T01:25:27.866Z,0.30
2019-03-13T01:27:55.923Z,0.93
2019-03-13T01:30:24.750Z,1.47
2019-03-13T01:32:54.443Z,0.83
2019-03-13T01:35:39.021Z,0.83
2019-03-13T01:38:07.062Z,2.10
2019-03-13T01:40:35.121Z,0.50
2019-03-13T01:43:03.174Z,1.03
2019-03-13T01:45:31.206Z,1.57
2019-03-13T01:47:59.258Z,0.53
2019-03-13T01:50:27.298Z,1.70
2019-03-13T01:52:55.342Z,1.13
2019-03-13T01:55:23.408Z,1.90
2019-03-13T01:57:51.455Z,1.53
2019-03-13T02:00:19.515Z,0.40
2019-03-13T02:02:47.558Z,0.20
2019-03-13T02:05:15.602Z,0.50
2019-03-13T02:07:43.698Z,0.87
2019-03-13T02:10:12.315Z,0.73
2019-03-13T02:12:40.361Z,0.37
2019-03-13T02:15:09.682Z,0.90
2019-03-13T02:17:37.730Z,0.47
2019-03-13T02:20:06.998Z,0.87
2019-03-13T02:22:35.052Z,1.00
2019-03-13T02:25:03.870Z,0.73
2019-03-13T02:27:31.918Z,3.60
2019-03-13T02:29:59.969Z,2.00
2019-03-13T02:32:28.035Z,1.77
2019-03-13T02:34:56.193Z,1.40
2019-03-13T02:37:24.234Z,1.43
2019-03-13T02:39:52.293Z,0.87
2019-03-13T02:42:20.348Z,1.90
2019-03-13T02:44:48.395Z,2.93
2019-03-13T02:47:19.139Z,4.23
2019-03-13T02:49:46.235Z,2.53
2019-03-13T02:52:14.307Z,1.13
2019-03-13T02:54:42.347Z,1.13
2019-03-13T02:57:11.163Z,1.23
2019-03-13T02:59:39.238Z,1.60
2019-03-13T03:02:08.932Z,1.90
2019-03-13T03:04:36.995Z,1.37
2019-03-13T03:07:05.468Z,1.67
2019-03-13T03:09:33.505Z,1.53
2019-03-13T03:12:01.578Z,3.13
2019-03-13T03:14:29.686Z,2.03
2019-03-13T03:16:58.732Z,0.67
2019-03-13T03:19:26.791Z,1.80
2019-03-13T03:21:54.847Z,1.80
2019-03-13T03:24:22.902Z,1.50
2019-03-13T03:26:50.972Z,2.90
2019-03-13T03:29:19.031Z,1.20
2019-03-13T03:31:47.168Z,1.33
2019-03-13T03:34:15.287Z,1.13
2019-03-13T03:36:43.356Z,2.43
2019-03-13T03:39:11.437Z,1.20
2019-03-13T03:41:39.473Z,0.30
2019-03-13T03:44:07.529Z,2.77
2019-03-13T03:46:35.623Z,1.90
2019-03-13T03:49:03.734Z,0.67
2019-03-13T03:51:32.541Z,1.03
2019-03-13T03:54:00.683Z,0.77
2019-03-13T03:56:28.750Z,1.63
2019-03-13T03:58:56.807Z,1.70
2019-03-13T04:01:24.855Z,0.63
2019-03-13T04:03:52.938Z,5.03
2019-03-13T04:06:20.997Z,0.87
2019-03-13T04:08:49.070Z,1.33
2019-03-13T04:11:17.177Z,1.10
2019-03-13T04:13:45.502Z,1.27
2019-03-13T04:16:13.643Z,2.43
2019-03-13T04:18:41.732Z,1.13
2019-03-13T04:21:09.864Z,1.67
2019-03-13T04:23:37.933Z,1.07
2019-03-13T04:26:05.986Z,3.07
2019-03-13T04:28:34.815Z,0.43
2019-03-13T04:31:02.958Z,0.67
2019-03-13T04:33:31.017Z,1.60
2019-03-13T04:35:59.077Z,0.40
2019-03-13T04:38:27.162Z,1.60
2019-03-13T04:40:55.227Z,2.03
2019-03-13T04:43:23.278Z,2.27
2019-03-13T04:45:51.332Z,2.10
2019-03-13T04:48:19.372Z,1.57
2019-03-13T04:50:47.452Z,2.10
2019-03-13T04:53:15.502Z,2.00
2019-03-13T04:55:43.543Z,0.90
2019-03-13T04:58:11.598Z,3.07
2019-03-13T05:00:39.651Z,3.30
2019-03-13T05:03:07.694Z,1.50
2019-03-13T05:05:37.294Z,3.23
2019-03-13T05:08:05.397Z,2.10
2019-03-13T05:10:33.445Z,1.30
2019-03-13T05:13:01.663Z,3.70
2019-03-13T05:15:29.808Z,6.60
2019-03-13T05:17:57.891Z,3.73
2019-03-13T05:20:25.934Z,1.00
2019-03-13T05:22:53.987Z,4.53
2019-03-13T05:25:22.046Z,3.10
2019-03-13T05:27:50.181Z,1.40
2019-03-13T05:30:18.218Z,1.80
2019-03-13T05:32:46.306Z,4.03
2019-03-13T05:35:14.346Z,4.27
2019-03-13T05:37:42.472Z,1.50
2019-03-13T05:40:11.085Z,6.80
2019-03-13T05:42:39.156Z,2.30
2019-03-13T05:45:08.541Z,3.27
2019-03-13T05:47:36.622Z,7.50
2019-03-13T05:50:05.487Z,2.03
2019-03-13T05:52:33.534Z,3.73
2019-03-13T05:55:01.598Z,4.37
2019-03-13T05:57:29.685Z,3.60
2019-03-13T05:59:57.783Z,2.43
2019-03-13T06:02:25.874Z,4.27
2019-03-13T06:04:54.406Z,1.87
2019-03-13T06:07:22.931Z,3.03
2019-03-13T06:09:51.075Z,5.43
2019-03-13T06:12:19.130Z,4.00
2019-03-13T06:14:47.194Z,4.73
2019-03-13T06:17:15.234Z,2.50
2019-03-13T06:19:43.307Z,4.77
2019-03-13T06:22:11.364Z,4.17
2019-03-13T06:24:39.426Z,4.87
2019-03-13T06:27:07.458Z,3.03
2019-03-13T06:29:35.527Z,6.40
2019-03-13T06:32:03.567Z,3.20
2019-03-13T06:34:31.632Z,3.30
2019-03-13T06:36:59.678Z,5.37
2019-03-13T06:39:27.750Z,3.17
2019-03-13T06:41:55.810Z,9.03
2019-03-13T06:44:23.853Z,5.13
2019-03-13T06:46:51.910Z,4.73
2019-03-13T06:49:19.958Z,4.17
2019-03-13T06:51:51.223Z,5.10
2019-03-13T06:54:19.278Z,4.53
2019-03-13T06:56:47.354Z,7.50
2019-03-13T06:59:17.051Z,5.43
2019-03-13T07:01:49.382Z,4.50
2019-03-13T07:04:28.097Z,4.23
2019-03-13T07:07:09.577Z,8.03
2019-03-13T07:09:44.894Z,3.63
2019-03-13T07:12:20.577Z,4.30
2019-03-13T07:14:50.250Z,2.70
2019-03-13T07:17:28.922Z,2.20
2019-03-13T07:20:01.050Z,3.20
2019-03-13T07:22:47.062Z,4.10
2019-03-13T07:25:22.402Z,10.50
2019-03-13T07:27:54.803Z,4.90
2019-03-13T07:30:30.402Z,7.13
2019-03-13T07:33:14.950Z,5.53
2019-03-13T07:35:47.642Z,2.63
2019-03-13T07:38:17.338Z,7.67
2019-03-13T07:40:47.043Z,6.23
2019-03-13T07:43:25.283Z,4.13
2019-03-13T07:45:57.914Z,6.50
2019-03-13T07:48:27.587Z,4.10
2019-03-13T07:50:57.292Z,3.13
2019-03-13T07:53:35.474Z,3.73
2019-03-13T07:56:05.219Z,6.13
2019-03-13T07:58:43.872Z,4.70
2019-03-13T08:01:14.718Z,6.47
2019-03-13T08:03:53.335Z,4.40
2019-03-13T08:06:38.798Z,5.87
2019-03-13T08:09:17.314Z,5.20
2019-03-13T08:11:46.994Z,7.33
2019-03-13T08:14:22.689Z,5.17
2019-03-13T08:16:52.369Z,8.13
2019-03-13T08:19:24.258Z,6.63
2019-03-13T08:22:09.811Z,5.87
2019-03-13T08:24:41.918Z,5.23
2019-03-13T08:27:27.677Z,4.67
2019-03-13T08:29:57.359Z,4.83
2019-03-13T08:32:30.940Z,6.40
2019-03-13T08:35:06.122Z,8.30
2019-03-13T08:37:42.035Z,8.77
2019-03-13T08:40:14.526Z,4.60
2019-03-13T08:43:00.330Z,4.67
2019-03-13T08:45:32.700Z,5.00
2019-03-13T08:48:14.498Z,6.10
2019-03-13T08:50:44.206Z,5.67
2019-03-13T08:53:13.899Z,4.67
2019-03-13T08:55:49.743Z,4.73
2019-03-13T08:58:31.521Z,4.37
2019-03-13T09:01:13.146Z,5.70
2019-03-13T09:03:42.857Z,5.37
2019-03-13T09:06:30.363Z,4.23
2019-03-13T09:09:14.917Z,5.77
2019-03-13T09:11:50.394Z,6.63
2019-03-13T09:14:29.099Z,3.93
2019-03-13T09:17:01.561Z,8.37
2019-03-13T09:19:31.246Z,5.93
2019-03-13T09:22:15.862Z,6.80
2019-03-13T09:24:48.189Z,8.10
2019-03-13T09:27:23.906Z,8.00
2019-03-13T09:30:10.022Z,4.07
2019-03-13T09:32:39.714Z,3.23
2019-03-13T09:35:18.214Z,6.67
2019-03-13T09:37:57.103Z,7.30
2019-03-13T09:40:36.026Z,7.07
2019-03-13T09:43:05.762Z,6.97
2019-03-13T09:45:38.188Z,5.60
2019-03-13T09:48:25.967Z,7.73
2019-03-13T09:50:55.673Z,5.37
2019-03-13T09:53:37.075Z,7.40
2019-03-13T09:56:09.441Z,2.87
2019-03-13T09:58:44.854Z,6.40
2019-03-13T10:01:27.021Z,6.90
2019-03-13T10:03:59.792Z,5.93
2019-03-13T10:06:29.458Z,5.40
2019-03-13T10:09:15.617Z,6.50
2019-03-13T10:11:51.395Z,3.87
2019-03-13T10:14:21.078Z,2.93
2019-03-13T10:17:09.807Z,4.67
2019-03-13T10:19:31.083Z,4.90
2019-03-13T10:22:15.964Z,4.50
2019-03-13T10:25:01.871Z,4.40
2019-03-13T10:27:31.541Z,4.67
2019-03-13T10:30:04.372Z,6.87
2019-03-13T10:32:39.878Z,7.20
2019-03-13T10:35:25.503Z,7.53
2019-03-13T10:38:14.472Z,6.13
2019-03-13T10:40:56.058Z,5.37
2019-03-13T10:43:41.812Z,5.23
2019-03-13T10:46:27.643Z,3.93
2019-03-13T10:49:15.453Z,4.03
2019-03-13T10:51:48.146Z,5.90
2019-03-13T10:54:33.922Z,2.97
2019-03-13T10:57:03.613Z,5.83
2019-03-13T10:59:35.954Z,4.17
2019-03-13T11:02:08.238Z,5.30
2019-03-13T11:04:50.127Z,7.77
2019-03-13T11:07:35.893Z,6.83
2019-03-13T11:10:09.716Z,4.60
2019-03-13T11:12:48.735Z,7.10
2019-03-13T11:15:30.074Z,3.57
2019-03-13T11:18:02.803Z,5.60
2019-03-13T11:20:38.409Z,10.20
2019-03-13T11:23:08.140Z,9.97
2019-03-13T11:25:40.754Z,8.23
2019-03-13T11:28:16.173Z,7.63
2019-03-13T11:30:48.756Z,3.43
2019-03-13T11:33:21.323Z,5.20
2019-03-13T11:36:03.072Z,5.33
2019-03-13T11:38:32.750Z,3.63
2019-03-13T11:41:18.901Z,6.57
2019-03-13T11:43:48.586Z,7.10
2019-03-13T11:46:34.589Z,5.40
2019-03-13T11:49:06.922Z,4.97
2019-03-13T11:51:38.784Z,2.47
2019-03-13T11:54:08.423Z,8.27
2019-03-13T11:56:44.104Z,2.77
2019-03-13T11:59:19.567Z,5.40
2019-03-13T12:01:49.258Z,10.50
2019-03-13T12:04:35.162Z,11.97
2019-03-13T12:07:10.819Z,4.10
2019-03-13T12:09:40.498Z,7.83
2019-03-13T12:12:10.177Z,6.73
2019-03-13T12:14:39.875Z,9.17
2019-03-13T12:17:09.565Z,8.77
2019-03-13T12:19:42.366Z,9.20
2019-03-13T12:22:27.872Z,6.90
2019-03-13T12:24:57.550Z,4.97
2019-03-13T12:27:33.387Z,7.97
2019-03-13T12:30:05.859Z,6.53
2019-03-13T12:32:44.466Z,7.60
2019-03-13T12:35:14.161Z,6.33
2019-03-13T12:37:52.771Z,5.33
2019-03-13T12:40:22.462Z,8.00
2019-03-13T12:45:50.273Z,6.30
2019-03-13T12:48:22.786Z,4.03
2019-03-13T12:50:55.386Z,5.50
2019-03-13T12:53:25.070Z,6.70
2019-03-13T12:56:00.706Z,5.33
2019-03-13T12:58:33.219Z,6.63
2019-03-13T13:01:21.401Z,4.60
2019-03-13T13:03:57.119Z,5.20
2019-03-13T13:06:45.099Z,6.30
2019-03-13T13:09:26.630Z,2.90
2019-03-13T13:12:14.404Z,3.37
2019-03-13T13:14:44.117Z,4.07
2019-03-13T13:17:16.851Z,10.23
2019-03-13T13:19:44.899Z,4.80
2019-03-13T13:22:13.024Z,4.10
2019-03-13T13:24:41.109Z,4.00
2019-03-13T13:27:09.938Z,6.80
2019-03-13T13:29:38.071Z,5.17
2019-03-13T13:32:06.115Z,8.63
2019-03-13T13:34:34.222Z,4.77
2019-03-13T13:37:02.333Z,5.70
2019-03-13T13:39:30.378Z,7.73
2019-03-13T13:41:58.426Z,5.03
2019-03-13T13:44:26.533Z,7.20
2019-03-13T13:46:54.707Z,4.50
2019-03-13T13:49:22.746Z,7.53
2019-03-13T13:51:53.854Z,5.07
2019-03-13T13:54:21.847Z,3.27
2019-03-13T13:56:49.919Z,3.60
2019-03-13T13:59:17.969Z,5.50
2019-03-13T14:01:46.006Z,6.97
2019-03-13T14:04:14.060Z,8.73
2019-03-13T14:06:42.110Z,4.17
2019-03-13T14:09:10.176Z,5.67
2019-03-13T14:11:38.214Z,3.10
2019-03-13T14:14:06.263Z,3.43
2019-03-13T14:16:34.414Z,3.00
2019-03-13T14:19:02.461Z,3.83
2019-03-13T14:21:30.499Z,3.60
2019-03-13T14:23:58.546Z,3.07
2019-03-13T14:26:26.584Z,2.73
2019-03-13T14:28:54.622Z,8.17
2019-03-13T14:31:22.687Z,3.17
2019-03-13T14:33:50.734Z,3.97
2019-03-13T14:36:18.802Z,3.53
2019-03-13T14:38:46.841Z,3.50
2019-03-13T14:41:14.939Z,2.03
2019-03-13T14:43:43.182Z,4.20
2019-03-13T14:46:11.218Z,3.43
2019-03-13T14:48:39.262Z,4.00
2019-03-13T14:51:09.624Z,2.37
2019-03-13T14:53:37.877Z,1.73
2019-03-13T14:56:06.000Z,3.63
2019-03-13T14:58:34.141Z,4.57
2019-03-13T15:01:02.262Z,2.03
2019-03-13T15:03:30.303Z,4.47
2019-03-13T15:05:58.351Z,4.13
2019-03-13T15:08:26.418Z,3.50
2019-03-13T15:10:54.455Z,5.17
2019-03-13T15:13:22.502Z,3.20
2019-03-13T15:15:50.542Z,5.67
2019-03-13T15:18:18.601Z,3.00
2019-03-13T15:20:46.660Z,2.83
2019-03-13T15:23:14.722Z,2.07
2019-03-13T15:25:42.759Z,4.13
2019-03-13T15:28:10.794Z,5.43
2019-03-13T15:30:38.870Z,6.30
2019-03-13T15:33:06.950Z,4.87
2019-03-13T15:35:34.990Z,4.03
2019-03-13T15:38:03.070Z,4.67
2019-03-13T15:40:31.103Z,4.50
2019-03-13T15:42:59.151Z,3.53
2019-03-13T15:45:30.632Z,6.57
2019-03-13T15:47:58.676Z,3.27
2019-03-13T15:50:26.718Z,6.07
2019-03-13T15:52:54.771Z,7.43
2019-03-13T15:55:22.806Z,6.60
2019-03-13T15:57:50.874Z,5.47
2019-03-13T16:00:22.739Z,4.80
2019-03-13T16:02:50.790Z,5.03
2019-03-13T16:05:18.863Z,3.37
2019-03-13T16:07:46.911Z,4.00
2019-03-13T16:10:15.462Z,5.60
2019-03-13T16:12:43.506Z,3.40
2019-03-13T16:15:13.101Z,6.37
2019-03-13T16:17:41.154Z,3.53
2019-03-13T16:20:12.939Z,5.40
2019-03-13T16:22:42.062Z,4.50
2019-03-13T16:25:10.187Z,4.93
2019-03-13T16:27:38.226Z,4.20
2019-03-13T16:30:08.217Z,5.77
2019-03-13T16:32:43.950Z,6.97
2019-03-13T16:35:07.113Z,6.13
2019-03-13T16:37:35.180Z,6.97
2019-03-13T16:40:04.262Z,5.43
2019-03-13T16:42:32.501Z,10.23
2019-03-13T16:45:00.555Z,7.83
2019-03-13T16:47:28.633Z,5.10
2019-03-13T16:49:56.695Z,5.93
2019-03-13T16:52:24.742Z,5.30
2019-03-13T16:54:52.789Z,7.17
2019-03-13T16:57:20.860Z,6.07
2019-03-13T17:00:00.003Z,7.17
2019-03-13T17:02:18.686Z,7.33
2019-03-13T17:04:46.731Z,7.77
2019-03-13T17:07:14.794Z,3.20
2019-03-13T17:09:42.877Z,5.90
2019-03-13T17:12:10.922Z,6.33
2019-03-13T17:14:39.002Z,4.23
2019-03-13T17:17:07.050Z,5.17
2019-03-13T17:19:35.146Z,4.03
2019-03-13T17:22:03.207Z,5.00
2019-03-13T17:24:31.266Z,3.43
2019-03-13T17:26:59.314Z,6.27
2019-03-13T17:29:27.355Z,6.30
2019-03-13T17:31:55.754Z,7.17
2019-03-13T17:34:23.866Z,4.90
2019-03-13T17:36:51.986Z,8.87
2019-03-13T17:39:20.116Z,6.57
2019-03-13T17:41:48.209Z,3.87
2019-03-13T17:44:16.279Z,5.13
2019-03-13T17:46:44.342Z,5.92
2019-03-13T17:49:12.406Z,6.23
2019-03-13T17:51:48.146Z,4.50
2019-03-13T17:54:13.966Z,5.93
2019-03-13T17:56:42.020Z,3.63
2019-03-13T17:59:10.078Z,5.93
2019-03-13T18:01:38.122Z,4.27
2019-03-13T18:04:06.263Z,3.80
2019-03-13T18:06:34.379Z,5.17
2019-03-13T18:09:04.142Z,4.17
2019-03-13T18:11:33.076Z,9.03
2019-03-13T18:14:01.129Z,4.47
2019-03-13T18:16:29.186Z,3.93
2019-03-13T18:18:57.233Z,3.70
2019-03-13T18:21:25.347Z,3.70
2019-03-13T18:23:53.406Z,4.37
2019-03-13T18:26:21.459Z,3.40
2019-03-13T18:28:49.523Z,2.23
2019-03-13T18:31:17.571Z,4.23
2019-03-13T18:33:45.609Z,8.17
2019-03-13T18:36:14.391Z,7.00
2019-03-13T18:38:42.689Z,7.30
2019-03-13T18:41:10.791Z,4.00
2019-03-13T18:43:38.834Z,3.40
2019-03-13T18:46:06.935Z,3.70
2019-03-13T18:48:35.045Z,0.97
2019-03-13T18:51:03.360Z,1.20
2019-03-13T18:53:31.675Z,1.40
2019-03-13T18:55:59.736Z,2.07
2019-03-13T18:58:27.802Z,1.97
2019-03-13T19:00:58.116Z,1.13
2019-03-13T19:03:25.648Z,2.97
2019-03-13T19:05:54.850Z,2.20
2019-03-13T19:08:23.042Z,0.27
2019-03-13T19:10:51.123Z,0.60
2019-03-13T19:13:19.174Z,2.03
2019-03-13T19:15:47.243Z,2.17
2019-03-13T19:18:15.315Z,0.37
2019-03-13T19:20:43.351Z,1.53
2019-03-13T19:23:14.085Z,1.27
2019-03-13T19:25:41.231Z,0.80
2019-03-13T19:28:09.473Z,1.00
2019-03-13T19:30:38.162Z,2.07
2019-03-13T19:33:06.419Z,1.07
2019-03-13T19:35:34.530Z,0.37
2019-03-13T19:38:07.071Z,1.53
2019-03-13T19:40:35.148Z,0.93
2019-03-13T19:43:03.924Z,0.70
2019-03-13T19:45:44.547Z,1.03
2019-03-13T19:48:12.659Z,1.00
2019-03-13T19:50:40.792Z,0.20
2019-03-13T19:53:08.833Z,0.90
2019-03-13T19:55:36.898Z,1.20
2019-03-13T19:58:05.044Z,1.17
2019-03-13T20:00:33.154Z,1.17
2019-03-13T20:03:02.118Z,1.30
2019-03-13T20:05:30.177Z,0.47
2019-03-13T20:07:58.230Z,1.17
2019-03-13T20:10:27.165Z,1.93
2019-03-13T20:12:55.315Z,0.57
2019-03-13T20:15:24.358Z,1.20
2019-03-13T20:17:52.406Z,3.13
2019-03-13T20:20:21.350Z,1.40
2019-03-13T20:22:50.468Z,1.17
2019-03-13T20:25:19.094Z,3.20
2019-03-13T20:27:47.127Z,2.97
2019-03-13T20:30:16.033Z,3.57
2019-03-13T20:32:44.110Z,1.00
2019-03-13T20:35:12.224Z,2.70
2019-03-13T20:37:40.332Z,2.90
2019-03-13T20:40:22.060Z,1.80
2019-03-13T20:42:50.172Z,1.23
2019-03-13T20:45:20.157Z,4.13
2019-03-13T20:47:48.277Z,0.77
2019-03-13T20:50:16.340Z,5.43
2019-03-13T20:52:45.724Z,1.63
2019-03-13T20:55:14.926Z,0.83
2019-03-13T20:57:43.008Z,0.87
2019-03-13T21:00:12.485Z,0.97
2019-03-13T21:02:40.546Z,1.10
2019-03-13T21:05:08.670Z,1.30
2019-03-13T21:07:36.714Z,2.47
2019-03-13T21:10:06.154Z,0.97
2019-03-13T21:12:34.256Z,0.97
2019-03-13T21:15:02.318Z,2.00
2019-03-13T21:17:30.367Z,0.57
2019-03-13T21:19:58.405Z,1.90
2019-03-13T21:22:26.453Z,0.80
2019-03-13T21:24:54.517Z,1.40
2019-03-13T21:27:22.574Z,1.80
2019-03-13T21:29:50.618Z,1.67
2019-03-13T21:32:18.674Z,1.97
2019-03-13T21:34:46.739Z,0.70
2019-03-13T21:37:14.830Z,1.00
2019-03-13T21:39:42.891Z,1.37
2019-03-13T21:42:10.962Z,1.23
2019-03-13T21:47:28.168Z,2.77
2019-03-13T21:49:56.221Z,2.90
2019-03-13T21:52:24.358Z,2.20
2019-03-13T21:54:52.415Z,4.60
2019-03-13T21:57:20.474Z,1.13
2019-03-13T21:59:48.564Z,4.50
2019-03-13T22:02:16.605Z,1.83
2019-03-13T22:04:44.678Z,1.47
2019-03-13T22:07:12.739Z,2.47
2019-03-13T22:09:40.784Z,3.50
2019-03-13T22:12:08.837Z,3.93
2019-03-13T22:14:38.553Z,4.53
2019-03-13T22:17:06.848Z,3.27
2019-03-13T22:19:34.939Z,2.40
2019-03-13T22:22:03.036Z,3.97
2019-03-13T22:24:31.099Z,4.20
2019-03-13T22:26:59.142Z,6.20
2019-03-13T22:29:27.207Z,5.10
2019-03-13T22:31:55.248Z,1.93
2019-03-13T22:34:23.298Z,4.40
2019-03-13T22:36:51.366Z,4.07
2019-03-13T22:39:19.410Z,2.83
2019-03-13T22:41:47.479Z,3.30
2019-03-13T22:44:15.622Z,4.83
2019-03-13T22:46:44.603Z,4.70
2019-03-13T22:49:12.750Z,6.57
2019-03-13T22:51:44.681Z,5.30
2019-03-13T22:54:12.747Z,2.97
2019-03-13T22:56:40.794Z,5.73
2019-03-13T22:59:08.863Z,4.57
2019-03-13T23:01:38.135Z,5.63
2019-03-13T23:04:06.271Z,2.60
2019-03-13T23:06:34.397Z,3.47
2019-03-13T23:09:02.472Z,4.73
2019-03-13T23:11:30.517Z,2.33
2019-03-13T23:13:58.688Z,4.27
2019-03-13T23:16:28.003Z,4.10
2019-03-13T23:18:56.066Z,2.87
2019-03-13T23:21:24.120Z,2.13
2019-03-13T23:23:52.174Z,1.90
2019-03-13T23:26:20.214Z,2.87
2019-03-13T23:28:48.271Z,2.27
2019-03-13T23:31:16.335Z,3.60
2019-03-13T23:33:44.430Z,4.40
2019-03-13T23:36:12.486Z,1.87
2019-03-13T23:38:40.538Z,2.40
2019-03-13T23:41:08.597Z,2.43
2019-03-13T23:43:36.646Z,4.57
2019-03-13T23:46:04.715Z,3.93
2019-03-13T23:48:32.787Z,5.13
2019-03-13T23:51:00.834Z,3.27
2019-03-13T23:53:28.877Z,4.27
2019-03-13T23:55:56.939Z,3.07
2019-03-13T23:58:24.986Z,3.10
